sensor_id;sensor_type;location;lat;lon;timestamp;P1;durP1;ratioP1;P2;durP2;ratioP2
40953;SDS011;26686;50.130;8.710;2022-07-01T00:00:19;1.20;;;0.40;;
40953;SDS011;26686;50.130;8.710;2022-07-01T00:05:21;0.82;;;0.40;;
40953;SDS011;26686;50.130;8.710;2022-07-01T00:10:22;0.40;;;0.10;;
40953;SDS011;26686;50.130;8.710;2022-07-01T00:15:24;0.30;;;0.10;;
40953;SDS011;26686;50.130;8.710;2022-07-01T00:20:25;0.45;;;0.20;;
40953;SDS011;26686;50.130;8.710;2022-07-01T00:25:27;0.20;;;0.10;;
40953;SDS011;26686;50.130;8.710;2022-07-01T00:30:28;0.40;;;0.20;;
40953;SDS011;26686;50.130;8.710;2022-07-01T00:35:31;2.92;;;0.40;;
40953;SDS011;26686;50.130;8.710;2022-07-01T00:40:32;0.50;;;0.20;;
40953;SDS011;26686;50.130;8.710;2022-07-01T00:45:34;2.75;;;0.75;;
40953;SDS011;26686;50.130;8.710;2022-07-01T00:50:35;1.45;;;0.30;;
40953;SDS011;26686;50.130;8.710;2022-07-01T00:55:36;2.05;;;0.40;;
40953;SDS011;26686;50.130;8.710;2022-07-01T01:00:38;1.05;;;0.35;;
40953;SDS011;26686;50.130;8.710;2022-07-01T01:05:40;1.02;;;0.50;;
40953;SDS011;26686;50.130;8.710;2022-07-01T01:10:42;1.30;;;0.50;;
40953;SDS011;26686;50.130;8.710;2022-07-01T01:15:43;0.63;;;0.50;;
40953;SDS011;26686;50.130;8.710;2022-07-01T01:20:45;0.68;;;0.30;;
40953;SDS011;26686;50.130;8.710;2022-07-01T01:25:49;1.65;;;0.30;;
40953;SDS011;26686;50.130;8.710;2022-07-01T01:30:50;0.75;;;0.20;;
40953;SDS011;26686;50.130;8.710;2022-07-01T01:35:52;2.50;;;0.52;;
40953;SDS011;26686;50.130;8.710;2022-07-01T01:40:53;1.00;;;0.30;;
40953;SDS011;26686;50.130;8.710;2022-07-01T01:45:56;0.70;;;0.30;;
40953;SDS011;26686;50.130;8.710;2022-07-01T01:50:58;1.10;;;0.30;;
40953;SDS011;26686;50.130;8.710;2022-07-01T01:55:59;0.93;;;0.50;;
40953;SDS011;26686;50.130;8.710;2022-07-01T02:01:01;0.73;;;0.68;;
40953;SDS011;26686;50.130;8.710;2022-07-01T02:06:03;1.00;;;0.60;;
40953;SDS011;26686;50.130;8.710;2022-07-01T02:11:05;0.80;;;0.55;;
40953;SDS011;26686;50.130;8.710;2022-07-01T02:16:07;0.82;;;0.60;;
40953;SDS011;26686;50.130;8.710;2022-07-01T02:21:09;1.38;;;0.60;;
40953;SDS011;26686;50.130;8.710;2022-07-01T02:26:11;0.60;;;0.43;;
40953;SDS011;26686;50.130;8.710;2022-07-01T02:31:13;1.60;;;0.80;;
40953;SDS011;26686;50.130;8.710;2022-07-01T02:36:15;1.48;;;0.80;;
40953;SDS011;26686;50.130;8.710;2022-07-01T02:41:16;0.75;;;0.60;;
40953;SDS011;26686;50.130;8.710;2022-07-01T02:46:18;1.33;;;0.60;;
40953;SDS011;26686;50.130;8.710;2022-07-01T02:51:19;1.17;;;0.52;;
40953;SDS011;26686;50.130;8.710;2022-07-01T02:56:21;0.82;;;0.70;;
40953;SDS011;26686;50.130;8.710;2022-07-01T03:01:22;1.00;;;0.68;;
40953;SDS011;26686;50.130;8.710;2022-07-01T03:06:24;1.40;;;0.52;;
40953;SDS011;26686;50.130;8.710;2022-07-01T03:11:25;1.40;;;0.70;;
40953;SDS011;26686;50.130;8.710;2022-07-01T03:16:27;0.93;;;0.75;;
40953;SDS011;26686;50.130;8.710;2022-07-01T03:21:28;1.95;;;0.70;;
40953;SDS011;26686;50.130;8.710;2022-07-01T03:26:30;0.85;;;0.60;;
40953;SDS011;26686;50.130;8.710;2022-07-01T03:31:38;1.00;;;0.63;;
40953;SDS011;26686;50.130;8.710;2022-07-01T03:36:39;1.10;;;0.80;;
40953;SDS011;26686;50.130;8.710;2022-07-01T03:41:41;0.75;;;0.60;;
40953;SDS011;26686;50.130;8.710;2022-07-01T03:46:42;1.17;;;0.63;;
40953;SDS011;26686;50.130;8.710;2022-07-01T03:51:43;0.80;;;0.40;;
40953;SDS011;26686;50.130;8.710;2022-07-01T03:56:45;1.30;;;0.60;;
40953;SDS011;26686;50.130;8.710;2022-07-01T04:01:46;1.58;;;0.40;;
40953;SDS011;26686;50.130;8.710;2022-07-01T04:06:47;1.70;;;0.50;;
40953;SDS011;26686;50.130;8.710;2022-07-01T04:11:50;1.05;;;0.32;;
40953;SDS011;26686;50.130;8.710;2022-07-01T04:16:51;0.93;;;0.40;;
40953;SDS011;26686;50.130;8.710;2022-07-01T04:21:53;1.33;;;0.38;;
40953;SDS011;26686;50.130;8.710;2022-07-01T04:27:14;0.73;;;0.30;;
40953;SDS011;26686;50.130;8.710;2022-07-01T04:32:16;0.70;;;0.50;;
40953;SDS011;26686;50.130;8.710;2022-07-01T04:37:17;1.95;;;0.47;;
40953;SDS011;26686;50.130;8.710;2022-07-01T04:42:18;1.08;;;0.32;;
40953;SDS011;26686;50.130;8.710;2022-07-01T04:47:21;0.60;;;0.20;;
40953;SDS011;26686;50.130;8.710;2022-07-01T04:52:24;0.50;;;0.30;;
40953;SDS011;26686;50.130;8.710;2022-07-01T04:57:26;0.70;;;0.40;;
40953;SDS011;26686;50.130;8.710;2022-07-01T05:02:27;0.32;;;0.20;;
40953;SDS011;26686;50.130;8.710;2022-07-01T05:07:29;0.57;;;0.40;;
40953;SDS011;26686;50.130;8.710;2022-07-01T05:12:30;2.15;;;0.30;;
40953;SDS011;26686;50.130;8.710;2022-07-01T05:17:32;0.90;;;0.50;;
40953;SDS011;26686;50.130;8.710;2022-07-01T05:23:03;1.55;;;0.43;;
40953;SDS011;26686;50.130;8.710;2022-07-01T05:28:05;1.67;;;0.40;;
40953;SDS011;26686;50.130;8.710;2022-07-01T05:33:06;1.58;;;0.55;;
40953;SDS011;26686;50.130;8.710;2022-07-01T05:38:07;1.25;;;0.50;;
40953;SDS011;26686;50.130;8.710;2022-07-01T05:43:09;0.50;;;0.45;;
40953;SDS011;26686;50.130;8.710;2022-07-01T05:48:10;0.50;;;0.20;;
40953;SDS011;26686;50.130;8.710;2022-07-01T05:53:11;0.88;;;0.30;;
40953;SDS011;26686;50.130;8.710;2022-07-01T05:58:13;0.60;;;0.30;;
40953;SDS011;26686;50.130;8.710;2022-07-01T06:03:15;0.70;;;0.25;;
40953;SDS011;26686;50.130;8.710;2022-07-01T06:08:17;0.40;;;0.20;;
40953;SDS011;26686;50.130;8.710;2022-07-01T06:13:18;1.02;;;0.25;;
40953;SDS011;26686;50.130;8.710;2022-07-01T06:18:19;1.20;;;0.20;;
40953;SDS011;26686;50.130;8.710;2022-07-01T06:23:21;1.48;;;0.20;;
40953;SDS011;26686;50.130;8.710;2022-07-01T06:28:23;0.40;;;0.10;;
40953;SDS011;26686;50.130;8.710;2022-07-01T06:33:30;1.55;;;0.20;;
40953;SDS011;26686;50.130;8.710;2022-07-01T06:38:32;0.30;;;0.10;;
40953;SDS011;26686;50.130;8.710;2022-07-01T06:43:33;1.23;;;0.85;;
40953;SDS011;26686;50.130;8.710;2022-07-01T06:48:35;1.17;;;0.63;;
40953;SDS011;26686;50.130;8.710;2022-07-01T06:53:37;1.08;;;0.30;;
40953;SDS011;26686;50.130;8.710;2022-07-01T06:58:39;1.15;;;0.30;;
40953;SDS011;26686;50.130;8.710;2022-07-01T07:03:41;0.70;;;0.28;;
40953;SDS011;26686;50.130;8.710;2022-07-01T07:08:42;3.28;;;0.40;;
40953;SDS011;26686;50.130;8.710;2022-07-01T07:13:43;0.98;;;0.57;;
40953;SDS011;26686;50.130;8.710;2022-07-01T07:18:45;2.53;;;0.30;;
40953;SDS011;26686;50.130;8.710;2022-07-01T07:23:46;1.83;;;0.20;;
40953;SDS011;26686;50.130;8.710;2022-07-01T07:28:48;1.38;;;0.50;;
40953;SDS011;26686;50.130;8.710;2022-07-01T07:33:49;1.65;;;0.40;;
40953;SDS011;26686;50.130;8.710;2022-07-01T07:38:50;2.35;;;0.70;;
40953;SDS011;26686;50.130;8.710;2022-07-01T07:43:52;0.55;;;0.25;;
40953;SDS011;26686;50.130;8.710;2022-07-01T07:48:53;1.25;;;0.45;;
40953;SDS011;26686;50.130;8.710;2022-07-01T07:53:55;1.80;;;0.90;;
40953;SDS011;26686;50.130;8.710;2022-07-01T07:58:56;1.30;;;0.40;;
40953;SDS011;26686;50.130;8.710;2022-07-01T08:03:58;1.27;;;0.57;;
40953;SDS011;26686;50.130;8.710;2022-07-01T08:08:59;2.45;;;0.70;;
40953;SDS011;26686;50.130;8.710;2022-07-01T08:14:01;2.88;;;0.70;;
40953;SDS011;26686;50.130;8.710;2022-07-01T08:19:02;2.70;;;0.73;;
40953;SDS011;26686;50.130;8.710;2022-07-01T08:24:04;3.00;;;0.75;;
40953;SDS011;26686;50.130;8.710;2022-07-01T08:29:06;1.65;;;0.70;;
40953;SDS011;26686;50.130;8.710;2022-07-01T08:34:07;1.83;;;0.50;;
40953;SDS011;26686;50.130;8.710;2022-07-01T08:39:10;3.07;;;0.80;;
40953;SDS011;26686;50.130;8.710;2022-07-01T08:44:11;1.65;;;0.52;;
40953;SDS011;26686;50.130;8.710;2022-07-01T08:49:13;3.92;;;0.70;;
40953;SDS011;26686;50.130;8.710;2022-07-01T08:54:14;1.17;;;0.50;;
40953;SDS011;26686;50.130;8.710;2022-07-01T08:59:23;2.97;;;0.95;;
40953;SDS011;26686;50.130;8.710;2022-07-01T09:04:26;1.10;;;0.68;;
40953;SDS011;26686;50.130;8.710;2022-07-01T09:09:28;1.90;;;1.13;;
40953;SDS011;26686;50.130;8.710;2022-07-01T09:14:31;1.92;;;0.50;;
40953;SDS011;26686;50.130;8.710;2022-07-01T09:19:35;2.15;;;0.82;;
40953;SDS011;26686;50.130;8.710;2022-07-01T09:24:44;1.77;;;0.60;;
40953;SDS011;26686;50.130;8.710;2022-07-01T09:29:47;2.55;;;0.68;;
40953;SDS011;26686;50.130;8.710;2022-07-01T09:34:52;2.22;;;0.80;;
40953;SDS011;26686;50.130;8.710;2022-07-01T09:39:58;1.70;;;0.75;;
40953;SDS011;26686;50.130;8.710;2022-07-01T09:45:00;2.33;;;0.68;;
40953;SDS011;26686;50.130;8.710;2022-07-01T09:50:08;1.52;;;0.57;;
40953;SDS011;26686;50.130;8.710;2022-07-01T09:55:10;2.13;;;0.97;;
40953;SDS011;26686;50.130;8.710;2022-07-01T10:00:13;3.25;;;0.63;;
40953;SDS011;26686;50.130;8.710;2022-07-01T10:05:16;1.33;;;1.00;;
40953;SDS011;26686;50.130;8.710;2022-07-01T10:10:34;2.42;;;0.90;;
40953;SDS011;26686;50.130;8.710;2022-07-01T10:15:45;1.67;;;0.70;;
40953;SDS011;26686;50.130;8.710;2022-07-01T10:20:49;2.47;;;0.52;;
40953;SDS011;26686;50.130;8.710;2022-07-01T10:25:52;2.57;;;0.70;;
40953;SDS011;26686;50.130;8.710;2022-07-01T10:30:59;1.35;;;0.60;;
40953;SDS011;26686;50.130;8.710;2022-07-01T10:36:12;1.73;;;0.60;;
40953;SDS011;26686;50.130;8.710;2022-07-01T10:41:26;2.33;;;0.70;;
40953;SDS011;26686;50.130;8.710;2022-07-01T10:46:42;1.98;;;0.50;;
40953;SDS011;26686;50.130;8.710;2022-07-01T10:56:52;3.10;;;0.80;;
40953;SDS011;26686;50.130;8.710;2022-07-01T11:01:54;1.70;;;1.00;;
40953;SDS011;26686;50.130;8.710;2022-07-01T11:06:55;1.88;;;0.80;;
40953;SDS011;26686;50.130;8.710;2022-07-01T11:11:57;1.35;;;0.50;;
40953;SDS011;26686;50.130;8.710;2022-07-01T11:16:58;3.63;;;0.70;;
40953;SDS011;26686;50.130;8.710;2022-07-01T11:22:00;2.45;;;0.50;;
40953;SDS011;26686;50.130;8.710;2022-07-01T11:27:06;2.78;;;0.60;;
40953;SDS011;26686;50.130;8.710;2022-07-01T11:32:08;2.17;;;0.50;;
40953;SDS011;26686;50.130;8.710;2022-07-01T11:37:10;1.90;;;0.88;;
40953;SDS011;26686;50.130;8.710;2022-07-01T11:42:30;1.42;;;0.88;;
40953;SDS011;26686;50.130;8.710;2022-07-01T11:47:32;2.08;;;0.77;;
40953;SDS011;26686;50.130;8.710;2022-07-01T11:52:33;1.75;;;0.68;;
40953;SDS011;26686;50.130;8.710;2022-07-01T11:57:35;1.00;;;0.50;;
40953;SDS011;26686;50.130;8.710;2022-07-01T12:02:36;5.68;;;0.70;;
40953;SDS011;26686;50.130;8.710;2022-07-01T12:07:38;4.22;;;1.00;;
40953;SDS011;26686;50.130;8.710;2022-07-01T12:12:39;2.20;;;0.85;;
40953;SDS011;26686;50.130;8.710;2022-07-01T12:17:41;3.35;;;0.73;;
40953;SDS011;26686;50.130;8.710;2022-07-01T12:22:42;1.77;;;0.43;;
40953;SDS011;26686;50.130;8.710;2022-07-01T12:27:43;1.30;;;0.70;;
40953;SDS011;26686;50.130;8.710;2022-07-01T12:32:45;3.05;;;0.85;;
40953;SDS011;26686;50.130;8.710;2022-07-01T12:37:47;1.95;;;0.65;;
40953;SDS011;26686;50.130;8.710;2022-07-01T12:42:48;1.40;;;0.65;;
40953;SDS011;26686;50.130;8.710;2022-07-01T12:47:50;2.30;;;0.50;;
40953;SDS011;26686;50.130;8.710;2022-07-01T12:52:57;2.00;;;0.77;;
40953;SDS011;26686;50.130;8.710;2022-07-01T12:58:04;1.88;;;0.77;;
40953;SDS011;26686;50.130;8.710;2022-07-01T13:03:09;3.53;;;0.80;;
40953;SDS011;26686;50.130;8.710;2022-07-01T13:08:12;2.33;;;0.60;;
40953;SDS011;26686;50.130;8.710;2022-07-01T13:13:13;1.90;;;0.50;;
40953;SDS011;26686;50.130;8.710;2022-07-01T13:18:17;2.80;;;0.70;;
40953;SDS011;26686;50.130;8.710;2022-07-01T13:23:19;2.25;;;0.73;;
40953;SDS011;26686;50.130;8.710;2022-07-01T13:28:20;1.70;;;0.80;;
40953;SDS011;26686;50.130;8.710;2022-07-01T13:33:22;1.83;;;0.70;;
40953;SDS011;26686;50.130;8.710;2022-07-01T13:38:23;1.88;;;0.73;;
40953;SDS011;26686;50.130;8.710;2022-07-01T13:43:24;2.53;;;0.98;;
40953;SDS011;26686;50.130;8.710;2022-07-01T13:48:26;2.30;;;0.55;;
40953;SDS011;26686;50.130;8.710;2022-07-01T13:53:27;3.70;;;0.60;;
40953;SDS011;26686;50.130;8.710;2022-07-01T13:58:29;2.75;;;1.00;;
40953;SDS011;26686;50.130;8.710;2022-07-01T14:03:31;2.08;;;0.50;;
40953;SDS011;26686;50.130;8.710;2022-07-01T14:08:32;1.52;;;0.60;;
40953;SDS011;26686;50.130;8.710;2022-07-01T14:13:33;3.33;;;1.33;;
40953;SDS011;26686;50.130;8.710;2022-07-01T14:18:38;2.08;;;0.80;;
40953;SDS011;26686;50.130;8.710;2022-07-01T14:23:46;1.20;;;0.73;;
40953;SDS011;26686;50.130;8.710;2022-07-01T14:28:52;1.75;;;0.85;;
40953;SDS011;26686;50.130;8.710;2022-07-01T14:33:54;2.80;;;1.05;;
40953;SDS011;26686;50.130;8.710;2022-07-01T14:38:55;1.58;;;0.60;;
40953;SDS011;26686;50.130;8.710;2022-07-01T14:43:56;2.67;;;0.40;;
40953;SDS011;26686;50.130;8.710;2022-07-01T14:48:58;0.60;;;0.30;;
40953;SDS011;26686;50.130;8.710;2022-07-01T14:53:59;1.20;;;0.40;;
40953;SDS011;26686;50.130;8.710;2022-07-01T14:59:01;1.65;;;0.30;;
40953;SDS011;26686;50.130;8.710;2022-07-01T15:04:08;1.38;;;0.40;;
40953;SDS011;26686;50.130;8.710;2022-07-01T15:09:09;0.80;;;0.50;;
40953;SDS011;26686;50.130;8.710;2022-07-01T15:14:12;1.30;;;0.47;;
40953;SDS011;26686;50.130;8.710;2022-07-01T15:19:14;0.30;;;0.30;;
40953;SDS011;26686;50.130;8.710;2022-07-01T15:24:15;2.50;;;0.30;;
40953;SDS011;26686;50.130;8.710;2022-07-01T15:29:16;2.58;;;0.32;;
40953;SDS011;26686;50.130;8.710;2022-07-01T15:34:18;1.33;;;0.52;;
40953;SDS011;26686;50.130;8.710;2022-07-01T15:39:20;1.60;;;0.50;;
40953;SDS011;26686;50.130;8.710;2022-07-01T15:44:21;0.90;;;0.40;;
40953;SDS011;26686;50.130;8.710;2022-07-01T15:49:22;0.77;;;0.40;;
40953;SDS011;26686;50.130;8.710;2022-07-01T15:54:24;1.75;;;0.35;;
40953;SDS011;26686;50.130;8.710;2022-07-01T15:59:25;1.23;;;0.47;;
40953;SDS011;26686;50.130;8.710;2022-07-01T16:04:27;1.25;;;0.70;;
40953;SDS011;26686;50.130;8.710;2022-07-01T16:09:33;0.57;;;0.30;;
40953;SDS011;26686;50.130;8.710;2022-07-01T16:14:39;1.38;;;0.60;;
40953;SDS011;26686;50.130;8.710;2022-07-01T16:19:41;0.93;;;0.40;;
40953;SDS011;26686;50.130;8.710;2022-07-01T16:24:47;2.42;;;0.68;;
40953;SDS011;26686;50.130;8.710;2022-07-01T16:29:49;1.58;;;0.65;;
40953;SDS011;26686;50.130;8.710;2022-07-01T16:34:51;1.45;;;0.50;;
40953;SDS011;26686;50.130;8.710;2022-07-01T16:39:52;2.38;;;0.60;;
40953;SDS011;26686;50.130;8.710;2022-07-01T16:50:09;1.17;;;0.50;;
40953;SDS011;26686;50.130;8.710;2022-07-01T16:55:13;1.25;;;0.57;;
40953;SDS011;26686;50.130;8.710;2022-07-01T17:00:17;2.03;;;0.40;;
40953;SDS011;26686;50.130;8.710;2022-07-01T17:05:23;0.63;;;0.40;;
40953;SDS011;26686;50.130;8.710;2022-07-01T17:10:25;0.73;;;0.25;;
40953;SDS011;26686;50.130;8.710;2022-07-01T17:15:28;1.25;;;0.35;;
40953;SDS011;26686;50.130;8.710;2022-07-01T17:20:30;4.47;;;0.32;;
40953;SDS011;26686;50.130;8.710;2022-07-01T17:25:34;1.60;;;0.30;;
40953;SDS011;26686;50.130;8.710;2022-07-01T17:30:52;2.10;;;0.52;;
40953;SDS011;26686;50.130;8.710;2022-07-01T17:36:05;1.98;;;0.93;;
40953;SDS011;26686;50.130;8.710;2022-07-01T17:41:15;0.73;;;0.57;;
40953;SDS011;26686;50.130;8.710;2022-07-01T17:46:18;1.02;;;0.60;;
40953;SDS011;26686;50.130;8.710;2022-07-01T17:51:20;1.67;;;0.60;;
40953;SDS011;26686;50.130;8.710;2022-07-01T17:56:23;2.37;;;1.40;;
40953;SDS011;26686;50.130;8.710;2022-07-01T18:01:25;2.33;;;1.00;;
40953;SDS011;26686;50.130;8.710;2022-07-01T18:06:28;1.88;;;1.30;;
40953;SDS011;26686;50.130;8.710;2022-07-01T18:17:00;2.42;;;1.30;;
40953;SDS011;26686;50.130;8.710;2022-07-01T18:22:04;2.08;;;0.82;;
40953;SDS011;26686;50.130;8.710;2022-07-01T18:27:27;2.65;;;1.13;;
40953;SDS011;26686;50.130;8.710;2022-07-01T18:32:37;2.58;;;0.50;;
40953;SDS011;26686;50.130;8.710;2022-07-01T18:37:45;2.35;;;0.63;;
40953;SDS011;26686;50.130;8.710;2022-07-01T18:42:56;2.10;;;0.68;;
40953;SDS011;26686;50.130;8.710;2022-07-01T18:47:59;2.20;;;1.23;;
40953;SDS011;26686;50.130;8.710;2022-07-01T18:53:02;1.70;;;1.20;;
40953;SDS011;26686;50.130;8.710;2022-07-01T18:58:04;2.75;;;2.10;;
40953;SDS011;26686;50.130;8.710;2022-07-01T19:03:06;4.63;;;3.17;;
40953;SDS011;26686;50.130;8.710;2022-07-01T19:08:07;6.65;;;5.25;;
40953;SDS011;26686;50.130;8.710;2022-07-01T19:13:08;5.32;;;4.72;;
40953;SDS011;26686;50.130;8.710;2022-07-01T19:18:17;3.92;;;3.00;;
40953;SDS011;26686;50.130;8.710;2022-07-01T19:23:18;1.98;;;1.77;;
40953;SDS011;26686;50.130;8.710;2022-07-01T19:28:19;3.22;;;2.33;;
40953;SDS011;26686;50.130;8.710;2022-07-01T19:33:21;2.60;;;1.63;;
40953;SDS011;26686;50.130;8.710;2022-07-01T19:38:23;1.83;;;1.02;;
40953;SDS011;26686;50.130;8.710;2022-07-01T19:43:24;2.55;;;1.40;;
40953;SDS011;26686;50.130;8.710;2022-07-01T19:48:26;1.90;;;1.45;;
40953;SDS011;26686;50.130;8.710;2022-07-01T19:53:29;3.35;;;1.58;;
40953;SDS011;26686;50.130;8.710;2022-07-01T19:58:30;2.53;;;1.55;;
40953;SDS011;26686;50.130;8.710;2022-07-01T20:03:33;4.25;;;1.52;;
40953;SDS011;26686;50.130;8.710;2022-07-01T20:08:35;4.18;;;1.73;;
40953;SDS011;26686;50.130;8.710;2022-07-01T20:13:36;1.60;;;1.05;;
40953;SDS011;26686;50.130;8.710;2022-07-01T20:18:38;2.85;;;1.48;;
40953;SDS011;26686;50.130;8.710;2022-07-01T20:23:39;2.88;;;1.40;;
40953;SDS011;26686;50.130;8.710;2022-07-01T20:28:41;1.48;;;0.70;;
40953;SDS011;26686;50.130;8.710;2022-07-01T20:33:42;2.90;;;1.10;;
40953;SDS011;26686;50.130;8.710;2022-07-01T20:38:48;3.63;;;1.63;;
40953;SDS011;26686;50.130;8.710;2022-07-01T20:43:50;3.95;;;1.60;;
40953;SDS011;26686;50.130;8.710;2022-07-01T20:48:51;1.67;;;1.38;;
40953;SDS011;26686;50.130;8.710;2022-07-01T20:53:53;4.20;;;1.67;;
40953;SDS011;26686;50.130;8.710;2022-07-01T20:58:54;2.75;;;1.40;;
40953;SDS011;26686;50.130;8.710;2022-07-01T21:04:15;3.10;;;1.52;;
40953;SDS011;26686;50.130;8.710;2022-07-01T21:09:17;3.38;;;1.33;;
40953;SDS011;26686;50.130;8.710;2022-07-01T21:14:18;3.45;;;1.40;;
40953;SDS011;26686;50.130;8.710;2022-07-01T21:19:19;1.85;;;1.20;;
40953;SDS011;26686;50.130;8.710;2022-07-01T21:24:21;2.63;;;1.45;;
40953;SDS011;26686;50.130;8.710;2022-07-01T21:29:23;4.35;;;1.50;;
40953;SDS011;26686;50.130;8.710;2022-07-01T21:34:26;2.45;;;1.65;;
40953;SDS011;26686;50.130;8.710;2022-07-01T21:44:30;1.92;;;1.30;;
40953;SDS011;26686;50.130;8.710;2022-07-01T21:49:34;3.80;;;1.58;;
40953;SDS011;26686;50.130;8.710;2022-07-01T21:54:36;2.00;;;1.38;;
40953;SDS011;26686;50.130;8.710;2022-07-01T21:59:40;2.10;;;1.50;;
40953;SDS011;26686;50.130;8.710;2022-07-01T22:09:45;3.17;;;1.63;;
40953;SDS011;26686;50.130;8.710;2022-07-01T22:14:47;3.55;;;1.95;;
40953;SDS011;26686;50.130;8.710;2022-07-01T22:19:53;2.30;;;1.80;;
40953;SDS011;26686;50.130;8.710;2022-07-01T22:24:57;3.35;;;2.30;;
40953;SDS011;26686;50.130;8.710;2022-07-01T22:30:00;2.55;;;1.85;;
40953;SDS011;26686;50.130;8.710;2022-07-01T22:35:02;2.47;;;1.25;;
40953;SDS011;26686;50.130;8.710;2022-07-01T22:40:04;1.85;;;1.40;;
40953;SDS011;26686;50.130;8.710;2022-07-01T22:45:06;2.53;;;1.48;;
40953;SDS011;26686;50.130;8.710;2022-07-01T22:50:52;2.45;;;1.60;;
40953;SDS011;26686;50.130;8.710;2022-07-01T23:01:01;2.55;;;1.33;;
40953;SDS011;26686;50.130;8.710;2022-07-01T23:06:05;2.47;;;1.90;;
40953;SDS011;26686;50.130;8.710;2022-07-01T23:11:11;2.05;;;1.85;;
40953;SDS011;26686;50.130;8.710;2022-07-01T23:16:23;1.58;;;1.48;;
40953;SDS011;26686;50.130;8.710;2022-07-01T23:21:28;2.78;;;2.10;;
40953;SDS011;26686;50.130;8.710;2022-07-01T23:26:30;2.38;;;2.13;;
40953;SDS011;26686;50.130;8.710;2022-07-01T23:31:32;1.95;;;1.75;;
40953;SDS011;26686;50.130;8.710;2022-07-01T23:36:38;2.75;;;1.65;;
40953;SDS011;26686;50.130;8.710;2022-07-01T23:41:41;3.13;;;1.77;;
40953;SDS011;26686;50.130;8.710;2022-07-01T23:46:42;4.03;;;2.28;;
40953;SDS011;26686;50.130;8.710;2022-07-01T23:51:44;2.30;;;1.70;;
40953;SDS011;26686;50.130;8.710;2022-07-01T23:56:45;3.80;;;2.35;;
